createdAt,value
2023-05-05T00:01:54.248Z,20.20
2023-05-05T00:04:25.706Z,20.19
2023-05-05T00:06:56.826Z,20.25
2023-05-05T00:09:28.124Z,20.23
2023-05-05T00:11:59.697Z,20.33
2023-05-05T00:14:31.177Z,20.41
2023-05-05T00:17:02.307Z,19.89
2023-05-05T00:19:34.063Z,19.73
2023-05-05T00:22:05.806Z,19.70
2023-05-05T00:24:37.563Z,19.80
2023-05-05T00:27:08.210Z,19.86
2023-05-05T00:29:39.803Z,19.61
2023-05-05T00:32:11.139Z,19.78
2023-05-05T00:34:42.428Z,19.69
2023-05-05T00:37:13.834Z,19.83
2023-05-05T00:39:45.947Z,19.72
2023-05-05T00:42:17.204Z,19.89
2023-05-05T00:44:48.604Z,20.17
2023-05-05T00:47:20.013Z,20.33
2023-05-05T00:49:50.822Z,20.22
2023-05-05T00:52:22.558Z,20.31
2023-05-05T00:54:53.693Z,20.60
2023-05-05T00:57:24.747Z,20.41
2023-05-05T00:59:56.874Z,20.56
2023-05-05T01:02:27.318Z,20.44
2023-05-05T01:04:58.889Z,20.34
2023-05-05T01:07:39.037Z,20.38
2023-05-05T01:10:20.135Z,20.24
2023-05-05T01:13:14.695Z,20.29
2023-05-05T01:16:13.350Z,20.20
2023-05-05T01:19:31.218Z,20.05
2023-05-05T01:22:04.942Z,20.03
2023-05-05T01:24:49.151Z,19.98
2023-05-05T01:28:07.796Z,19.74
2023-05-05T01:31:15.242Z,19.45
2023-05-05T01:34:00.665Z,19.45
2023-05-05T01:36:39.197Z,19.38
2023-05-05T01:39:14.840Z,19.49
2023-05-05T01:41:49.501Z,19.61
2023-05-05T01:44:21.898Z,19.76
2023-05-05T01:46:54.944Z,19.84
2023-05-05T01:49:26.791Z,19.90
2023-05-05T01:51:59.251Z,19.78
2023-05-05T01:54:32.970Z,19.87
2023-05-05T01:57:06.502Z,19.73
2023-05-05T01:59:40.457Z,19.76
2023-05-05T02:02:13.568Z,19.63
2023-05-05T02:04:46.413Z,19.60
2023-05-05T02:07:18.309Z,19.57
2023-05-05T02:09:50.965Z,19.45
2023-05-05T02:12:22.902Z,19.27
2023-05-05T02:14:55.148Z,19.33
2023-05-05T02:17:27.543Z,19.17
2023-05-05T02:20:00.953Z,19.16
2023-05-05T02:22:33.130Z,19.08
2023-05-05T02:25:05.373Z,18.99
2023-05-05T02:27:38.552Z,19.10
2023-05-05T02:30:12.595Z,19.00
2023-05-05T02:32:49.263Z,18.99
2023-05-05T02:35:24.685Z,18.98
2023-05-05T02:38:04.110Z,19.04
2023-05-05T02:40:42.183Z,19.03
2023-05-05T02:43:19.058Z,19.07
2023-05-05T02:45:50.865Z,19.12
2023-05-05T02:48:23.154Z,19.21
2023-05-05T02:50:56.093Z,19.33
2023-05-05T02:53:35.357Z,19.34
2023-05-05T02:56:46.681Z,19.45
2023-05-05T02:59:54.518Z,19.52
2023-05-05T03:02:46.935Z,19.58
2023-05-05T03:05:37.518Z,19.81
2023-05-05T03:08:20.382Z,19.78
2023-05-05T03:11:23.277Z,19.84
2023-05-05T03:14:00.834Z,19.78
2023-05-05T03:16:32.431Z,19.76
2023-05-05T03:19:05.373Z,19.76
2023-05-05T03:21:36.994Z,19.81
2023-05-05T03:24:21.625Z,19.95
2023-05-05T03:27:02.007Z,19.92
2023-05-05T03:29:38.265Z,19.84
2023-05-05T03:32:14.198Z,19.78
2023-05-05T03:34:46.044Z,19.76
2023-05-05T03:37:18.120Z,19.73
2023-05-05T03:39:50.437Z,19.80
2023-05-05T03:42:21.547Z,19.74
2023-05-05T03:44:55.270Z,19.78
2023-05-05T03:47:27.214Z,19.77
2023-05-05T03:49:59.949Z,19.77
2023-05-05T03:52:31.032Z,19.73
2023-05-05T03:55:02.460Z,19.77
2023-05-05T03:57:35.655Z,19.78
2023-05-05T04:00:07.551Z,19.75
2023-05-05T04:02:45.134Z,19.74
2023-05-05T04:05:21.311Z,19.75
2023-05-05T04:07:53.200Z,19.64
2023-05-05T04:10:23.999Z,19.65
2023-05-05T04:12:55.311Z,19.71
2023-05-05T04:15:26.816Z,19.70
2023-05-05T04:17:58.731Z,19.72
2023-05-05T04:20:33.593Z,19.65
2023-05-05T04:23:04.723Z,19.62
2023-05-05T04:25:35.711Z,19.65
2023-05-05T04:28:08.012Z,19.14
2023-05-05T04:30:40.227Z,18.91
2023-05-05T04:33:11.610Z,18.76
2023-05-05T04:35:42.683Z,18.64
2023-05-05T04:38:14.450Z,18.48
2023-05-05T04:40:45.990Z,18.43
2023-05-05T04:43:17.099Z,18.38
2023-05-05T04:45:55.894Z,18.37
2023-05-05T04:48:31.571Z,18.35
2023-05-05T04:51:07.425Z,18.33
2023-05-05T04:53:40.085Z,18.37
2023-05-05T04:56:11.192Z,18.26
2023-05-05T04:58:42.953Z,18.21
2023-05-05T05:01:14.085Z,18.20
2023-05-05T05:03:45.687Z,18.25
2023-05-05T05:06:17.287Z,18.24
2023-05-05T05:08:48.701Z,18.32
2023-05-05T05:11:20.162Z,18.31
2023-05-05T05:13:51.493Z,18.36
2023-05-05T05:16:23.032Z,18.40
2023-05-05T05:18:53.358Z,18.40
2023-05-05T05:21:24.818Z,18.37
2023-05-05T05:23:56.469Z,18.39
2023-05-05T05:26:28.653Z,18.39
2023-05-05T05:29:00.898Z,18.42
2023-05-05T05:31:32.849Z,18.38
2023-05-05T05:34:04.855Z,18.38
2023-05-05T05:36:35.969Z,18.46
2023-05-05T05:39:07.026Z,18.44
2023-05-05T05:41:37.981Z,18.51
2023-05-05T05:44:09.150Z,18.44
2023-05-05T05:46:40.861Z,18.42
2023-05-05T05:49:12.374Z,18.41
2023-05-05T05:51:46.657Z,18.43
2023-05-05T05:54:23.999Z,18.40
2023-05-05T05:56:55.135Z,18.48
2023-05-05T05:59:26.212Z,18.37
2023-05-05T06:01:58.395Z,18.41
2023-05-05T06:04:30.165Z,18.45
2023-05-05T06:07:02.074Z,18.43
2023-05-05T06:09:33.298Z,18.38
2023-05-05T06:12:05.386Z,18.49
2023-05-05T06:14:37.222Z,18.45
2023-05-05T06:17:08.636Z,18.46
2023-05-05T06:19:42.449Z,18.47
2023-05-05T06:22:14.212Z,18.42
2023-05-05T06:24:46.697Z,18.42
2023-05-05T06:27:18.416Z,18.43
2023-05-05T06:29:50.604Z,18.44
2023-05-05T06:32:21.968Z,18.40
2023-05-05T06:34:53.222Z,18.42
2023-05-05T06:37:24.461Z,18.44
2023-05-05T06:39:55.459Z,18.40
2023-05-05T06:42:26.732Z,18.35
2023-05-05T06:45:00.852Z,18.43
2023-05-05T06:47:32.069Z,18.47
2023-05-05T06:50:03.280Z,18.52
2023-05-05T06:52:34.622Z,18.55
2023-05-05T06:55:05.993Z,18.52
2023-05-05T06:57:37.247Z,18.58
2023-05-05T07:00:12.724Z,18.53
2023-05-05T07:02:44.021Z,18.57
2023-05-05T07:05:14.745Z,18.57
2023-05-05T07:07:59.104Z,18.56
2023-05-05T07:10:30.708Z,18.59
2023-05-05T07:13:01.979Z,18.54
2023-05-05T07:15:33.190Z,18.60
2023-05-05T07:18:04.886Z,18.61
2023-05-05T07:20:36.609Z,18.63
2023-05-05T07:23:07.742Z,18.59
2023-05-05T07:25:39.737Z,18.55
2023-05-05T07:28:10.780Z,18.58
2023-05-05T07:30:42.396Z,18.56
2023-05-05T07:33:13.724Z,18.58
2023-05-05T07:35:45.023Z,18.60
2023-05-05T07:38:16.162Z,18.60
2023-05-05T07:40:47.456Z,18.63
2023-05-05T07:43:18.881Z,18.57
2023-05-05T07:45:50.206Z,18.58
2023-05-05T07:48:21.508Z,18.58
2023-05-05T07:50:54.056Z,18.67
2023-05-05T07:53:25.624Z,18.73
2023-05-05T07:55:57.102Z,18.77
2023-05-05T07:58:28.794Z,18.77
2023-05-05T08:01:00.945Z,18.79
2023-05-05T08:03:32.677Z,18.80
2023-05-05T08:06:13.169Z,18.79
2023-05-05T08:08:45.109Z,18.75
2023-05-05T08:11:17.228Z,18.79
2023-05-05T08:13:48.957Z,18.75
2023-05-05T08:16:20.576Z,18.76
2023-05-05T08:18:51.905Z,18.74
2023-05-05T08:21:23.123Z,18.73
2023-05-05T08:23:54.181Z,18.68
2023-05-05T08:26:25.032Z,18.66
2023-05-05T08:28:58.150Z,18.71
2023-05-05T08:31:37.184Z,18.70
2023-05-05T08:34:08.955Z,18.64
2023-05-05T08:36:40.334Z,18.60
2023-05-05T08:39:11.466Z,18.73
2023-05-05T08:41:42.827Z,18.67
2023-05-05T08:44:14.375Z,18.73
2023-05-05T08:46:46.451Z,18.73
2023-05-05T08:49:18.699Z,18.74
2023-05-05T08:51:50.336Z,18.68
2023-05-05T08:54:22.730Z,18.69
2023-05-05T08:56:54.898Z,18.74
2023-05-05T08:59:26.802Z,18.73
2023-05-05T09:02:02.268Z,18.73
2023-05-05T09:04:34.272Z,18.74
2023-05-05T09:07:05.712Z,18.72
2023-05-05T09:09:37.343Z,18.71
2023-05-05T09:12:08.896Z,18.72
2023-05-05T09:14:40.289Z,18.70
2023-05-05T09:17:27.909Z,18.69
2023-05-05T09:20:19.627Z,18.68
2023-05-05T09:22:51.066Z,18.68
2023-05-05T09:25:22.617Z,18.69
2023-05-05T09:27:53.515Z,18.70
2023-05-05T09:30:28.645Z,18.67
2023-05-05T09:33:00.849Z,18.64
2023-05-05T09:35:32.402Z,18.66
2023-05-05T09:38:13.869Z,18.71
2023-05-05T09:40:53.437Z,18.67
2023-05-05T09:43:25.465Z,18.68
2023-05-05T09:46:09.876Z,18.62
2023-05-05T09:48:41.425Z,18.65
2023-05-05T09:51:12.951Z,18.65
2023-05-05T09:53:44.306Z,18.60
2023-05-05T09:56:15.452Z,18.66
2023-05-05T09:58:46.497Z,18.60
2023-05-05T10:01:27.241Z,18.58
2023-05-05T10:03:58.985Z,18.62
2023-05-05T10:06:45.463Z,18.62
2023-05-05T10:09:16.841Z,18.66
2023-05-05T10:11:48.998Z,18.64
2023-05-05T10:14:21.098Z,18.65
2023-05-05T10:16:54.514Z,18.62
2023-05-05T10:19:26.544Z,18.64
2023-05-05T10:22:01.844Z,18.62
2023-05-05T10:24:39.298Z,18.66
2023-05-05T10:27:19.837Z,18.71
2023-05-05T10:30:00.161Z,18.69
2023-05-05T10:32:51.944Z,18.73
2023-05-05T10:35:29.490Z,18.75
2023-05-05T10:38:01.211Z,18.69
2023-05-05T10:40:33.278Z,18.72
2023-05-05T10:43:05.196Z,18.74
2023-05-05T10:45:36.525Z,18.74
2023-05-05T10:48:08.640Z,18.76
2023-05-05T10:50:46.876Z,18.65
2023-05-05T10:53:38.917Z,18.66
2023-05-05T10:56:29.017Z,18.68
2023-05-05T10:59:00.969Z,18.64
2023-05-05T11:01:34.689Z,18.62
2023-05-05T11:04:25.673Z,18.63
2023-05-05T11:07:14.798Z,18.71
2023-05-05T11:10:03.639Z,18.69
2023-05-05T11:13:04.080Z,18.71
2023-05-05T11:15:39.012Z,18.68
2023-05-05T11:18:10.326Z,18.70
2023-05-05T11:20:41.615Z,18.69
2023-05-05T11:23:15.226Z,18.73
2023-05-05T11:25:48.034Z,18.60
2023-05-05T11:28:21.306Z,18.67
2023-05-05T11:31:02.926Z,18.72
2023-05-05T11:33:42.725Z,18.74
2023-05-05T11:36:19.307Z,18.78
2023-05-05T11:39:01.606Z,18.84
2023-05-05T11:41:54.559Z,18.90
2023-05-05T11:44:37.228Z,18.77
2023-05-05T11:47:08.481Z,18.86
2023-05-05T11:49:41.581Z,18.81
2023-05-05T11:52:14.692Z,18.83
2023-05-05T11:54:51.953Z,18.89
2023-05-05T11:57:30.217Z,18.86
2023-05-05T12:00:06.634Z,18.85
2023-05-05T12:02:44.220Z,18.85
2023-05-05T12:05:22.542Z,18.81
2023-05-05T12:08:00.196Z,18.77
2023-05-05T12:10:31.756Z,18.70
2023-05-05T12:13:03.023Z,18.75
2023-05-05T12:15:35.313Z,18.63
2023-05-05T12:18:07.884Z,18.64
2023-05-05T12:20:39.104Z,18.62
2023-05-05T12:23:13.848Z,18.59
2023-05-05T12:25:47.115Z,18.58
2023-05-05T12:28:18.492Z,18.60
2023-05-05T12:31:01.766Z,18.59
2023-05-05T12:33:33.522Z,18.56
2023-05-05T12:36:05.846Z,18.57
2023-05-05T12:38:38.994Z,18.54
2023-05-05T12:41:10.365Z,18.54
2023-05-05T12:43:41.298Z,18.52
2023-05-05T12:46:14.080Z,18.52
2023-05-05T12:48:47.952Z,18.46
2023-05-05T12:51:24.898Z,18.39
2023-05-05T12:54:09.953Z,18.43
2023-05-05T12:56:42.203Z,18.34
2023-05-05T12:59:24.035Z,18.31
2023-05-05T13:01:55.469Z,18.30
2023-05-05T13:04:28.914Z,18.24
2023-05-05T13:07:21.072Z,18.23
2023-05-05T13:09:53.552Z,18.13
2023-05-05T13:12:25.137Z,18.17
2023-05-05T13:14:56.698Z,18.20
2023-05-05T13:17:28.252Z,18.16
2023-05-05T13:19:59.610Z,18.19
2023-05-05T13:22:32.179Z,18.20
2023-05-05T13:25:03.564Z,18.14
2023-05-05T13:27:35.685Z,18.18
2023-05-05T13:30:07.618Z,18.05
2023-05-05T13:32:39.063Z,18.13
2023-05-05T13:35:11.711Z,18.15
2023-05-05T13:37:45.856Z,18.13
2023-05-05T13:40:17.699Z,18.15
2023-05-05T13:42:49.531Z,18.10
2023-05-05T13:45:21.180Z,18.15
2023-05-05T13:47:52.738Z,18.20
2023-05-05T13:50:25.259Z,18.23
2023-05-05T13:52:56.680Z,18.23
2023-05-05T13:55:29.740Z,18.17
2023-05-05T13:58:01.427Z,18.16
2023-05-05T14:00:33.248Z,18.18
2023-05-05T14:03:04.723Z,18.19
2023-05-05T14:05:36.618Z,18.16
2023-05-05T14:08:08.104Z,18.17
2023-05-05T14:10:39.611Z,18.15
2023-05-05T14:13:11.353Z,18.14
2023-05-05T14:15:42.643Z,18.15
2023-05-05T14:18:13.716Z,18.17
2023-05-05T14:20:45.057Z,18.18
2023-05-05T14:23:16.348Z,18.25
2023-05-05T14:25:47.820Z,18.16
2023-05-05T14:28:18.593Z,18.19
2023-05-05T14:30:50.097Z,18.07
2023-05-05T14:33:21.750Z,18.09
2023-05-05T14:35:52.931Z,18.13
2023-05-05T14:38:24.260Z,18.11
2023-05-05T14:40:55.915Z,18.07
2023-05-05T14:43:27.179Z,18.11
2023-05-05T14:46:01.683Z,18.12
2023-05-05T14:48:33.037Z,18.11
2023-05-05T14:51:04.368Z,18.05
2023-05-05T14:53:37.452Z,18.08
2023-05-05T14:56:10.361Z,18.04
2023-05-05T14:58:41.264Z,18.06
2023-05-05T15:01:12.627Z,18.05
2023-05-05T15:03:43.730Z,18.05
2023-05-05T15:06:15.105Z,18.00
2023-05-05T15:08:46.694Z,17.96
2023-05-05T15:11:18.148Z,17.97
2023-05-05T15:13:49.177Z,17.97
2023-05-05T15:16:20.498Z,17.91
2023-05-05T15:18:51.397Z,17.97
2023-05-05T15:21:23.022Z,17.91
2023-05-05T15:23:54.639Z,17.88
2023-05-05T15:26:25.859Z,17.95
2023-05-05T15:28:57.484Z,17.95
2023-05-05T15:31:28.514Z,17.96
2023-05-05T15:33:59.561Z,17.94
2023-05-05T15:36:30.830Z,17.93
2023-05-05T15:39:02.338Z,17.97
2023-05-05T15:41:36.360Z,17.95
2023-05-05T15:44:07.703Z,17.89
2023-05-05T15:46:38.889Z,17.95
2023-05-05T15:49:10.054Z,17.99
2023-05-05T15:51:41.925Z,17.96
2023-05-05T15:54:12.997Z,17.98
2023-05-05T15:56:47.469Z,17.95
2023-05-05T15:59:19.335Z,17.97
2023-05-05T16:01:50.611Z,17.92
2023-05-05T16:04:22.010Z,17.89
2023-05-05T16:06:53.101Z,17.83
2023-05-05T16:09:24.491Z,17.88
2023-05-05T16:11:56.420Z,17.83
2023-05-05T16:14:29.311Z,17.73
2023-05-05T16:17:03.535Z,17.73
2023-05-05T16:19:35.259Z,17.78
2023-05-05T16:22:07.835Z,17.71
2023-05-05T16:24:39.011Z,17.74
2023-05-05T16:27:09.967Z,17.70
2023-05-05T16:29:41.314Z,17.74
2023-05-05T16:32:12.514Z,17.81
2023-05-05T16:34:43.768Z,17.76
2023-05-05T16:37:14.946Z,17.71
2023-05-05T16:39:46.130Z,17.69
2023-05-05T16:42:18.188Z,17.63
2023-05-05T16:44:49.295Z,17.70
2023-05-05T16:47:20.892Z,17.67
2023-05-05T16:49:54.047Z,17.64
2023-05-05T16:52:25.678Z,17.67
2023-05-05T16:54:58.164Z,17.73
2023-05-05T16:57:29.596Z,17.74
2023-05-05T17:00:00.840Z,17.78
2023-05-05T17:02:34.476Z,17.77
2023-05-05T17:05:06.157Z,17.74
2023-05-05T17:07:37.421Z,17.70
2023-05-05T17:10:09.608Z,17.68
2023-05-05T17:12:41.109Z,17.66
2023-05-05T17:15:12.474Z,17.79
2023-05-05T17:17:43.990Z,17.71
2023-05-05T17:20:15.751Z,17.67
2023-05-05T17:22:48.128Z,17.67
2023-05-05T17:25:18.660Z,17.72
2023-05-05T17:27:50.608Z,17.69
2023-05-05T17:30:22.219Z,17.63
2023-05-05T17:32:54.050Z,17.56
2023-05-05T17:35:25.273Z,17.56
2023-05-05T17:37:56.719Z,17.55
2023-05-05T17:40:28.254Z,17.62
2023-05-05T17:43:00.348Z,17.62
2023-05-05T17:45:32.137Z,17.58
2023-05-05T17:48:03.905Z,17.60
2023-05-05T17:50:35.216Z,17.52
2023-05-05T17:53:06.796Z,17.51
2023-05-05T17:55:38.451Z,17.46
2023-05-05T17:58:09.764Z,17.46
2023-05-05T18:00:41.294Z,17.53
2023-05-05T18:03:12.756Z,17.53
2023-05-05T18:05:44.370Z,17.47
2023-05-05T18:08:15.541Z,17.50
2023-05-05T18:10:46.809Z,17.46
2023-05-05T18:13:18.382Z,17.47
2023-05-05T18:15:49.600Z,17.47
2023-05-05T18:18:20.970Z,17.52
2023-05-05T18:20:52.331Z,17.48
2023-05-05T18:23:23.470Z,17.45
2023-05-05T18:25:54.670Z,17.42
2023-05-05T18:28:25.832Z,17.44
2023-05-05T18:30:57.315Z,17.47
2023-05-05T18:33:28.628Z,17.41
2023-05-05T18:35:59.782Z,17.36
2023-05-05T18:38:31.150Z,17.29
2023-05-05T18:41:02.571Z,17.24
2023-05-05T18:43:34.832Z,17.28
2023-05-05T18:46:06.483Z,17.26
2023-05-05T18:48:37.700Z,17.33
2023-05-05T18:51:09.163Z,17.30
2023-05-05T18:53:40.181Z,17.34
2023-05-05T18:56:11.494Z,17.40
2023-05-05T18:58:42.688Z,17.47
2023-05-05T19:01:14.497Z,17.44
2023-05-05T19:03:52.372Z,17.41
2023-05-05T19:06:23.674Z,17.39
2023-05-05T19:08:55.393Z,17.33
2023-05-05T19:11:27.157Z,17.38
2023-05-05T19:13:58.425Z,17.34
2023-05-05T19:16:30.239Z,17.33
2023-05-05T19:19:02.370Z,17.42
2023-05-05T19:21:33.766Z,17.39
2023-05-05T19:24:05.666Z,17.42
2023-05-05T19:26:37.269Z,17.37
2023-05-05T19:29:08.599Z,17.39
2023-05-05T19:31:40.008Z,17.38
2023-05-05T19:34:11.120Z,17.46
2023-05-05T19:36:42.959Z,17.50
2023-05-05T19:39:15.632Z,17.48
2023-05-05T19:41:47.433Z,17.44
2023-05-05T19:44:19.636Z,17.43
2023-05-05T19:46:51.064Z,17.48
2023-05-05T19:49:22.454Z,17.52
2023-05-05T19:51:55.868Z,17.58
2023-05-05T19:54:27.805Z,17.63
2023-05-05T19:56:59.485Z,17.65
2023-05-05T19:59:30.350Z,17.68
2023-05-05T20:02:01.606Z,17.69
2023-05-05T20:04:32.475Z,17.60
2023-05-05T20:07:05.149Z,17.79
2023-05-05T20:09:36.553Z,17.77
2023-05-05T20:12:07.480Z,17.87
2023-05-05T20:14:39.086Z,17.95
2023-05-05T20:17:10.536Z,18.02
2023-05-05T20:19:41.941Z,18.07
2023-05-05T20:22:13.179Z,18.18
2023-05-05T20:24:45.365Z,18.24
2023-05-05T20:27:16.589Z,18.34
2023-05-05T20:29:47.851Z,18.33
2023-05-05T20:32:22.053Z,18.42
2023-05-05T20:34:53.349Z,18.51
2023-05-05T20:37:24.915Z,18.61
2023-05-05T20:39:58.247Z,18.71
2023-05-05T20:42:31.022Z,18.69
2023-05-05T20:45:03.866Z,18.85
2023-05-05T20:47:37.581Z,19.25
2023-05-05T20:50:10.136Z,19.25
2023-05-05T20:52:41.604Z,19.23
2023-05-05T20:55:13.177Z,19.16
2023-05-05T20:57:44.476Z,19.25
2023-05-05T21:00:16.176Z,19.27
2023-05-05T21:02:47.680Z,19.25
2023-05-05T21:05:18.276Z,19.27
2023-05-05T21:07:49.279Z,19.25
2023-05-05T21:10:20.728Z,19.27
2023-05-05T21:12:52.709Z,19.28
2023-05-05T21:15:24.033Z,19.25
2023-05-05T21:17:55.789Z,19.24
2023-05-05T21:20:27.141Z,19.29
2023-05-05T21:22:59.449Z,19.32
2023-05-05T21:25:32.187Z,19.29
2023-05-05T21:28:03.399Z,19.37
2023-05-05T21:30:34.863Z,19.41
2023-05-05T21:33:06.324Z,19.36
2023-05-05T21:35:37.474Z,19.43
2023-05-05T21:38:08.503Z,19.36
2023-05-05T21:40:39.740Z,19.51
2023-05-05T21:43:10.793Z,19.55
2023-05-05T21:45:43.086Z,19.61
2023-05-05T21:48:14.459Z,19.69
2023-05-05T21:50:45.736Z,19.81
2023-05-05T21:53:16.957Z,20.00
2023-05-05T21:55:49.251Z,19.95
2023-05-05T21:58:21.894Z,19.93
2023-05-05T22:00:53.974Z,20.03
2023-05-05T22:03:25.818Z,20.07
2023-05-05T22:05:57.390Z,20.08
2023-05-05T22:08:28.552Z,20.30
2023-05-05T22:10:59.771Z,20.29
2023-05-05T22:13:31.003Z,20.63
2023-05-05T22:16:02.420Z,20.71
2023-05-05T22:18:33.793Z,20.71
2023-05-05T22:21:06.476Z,21.02
2023-05-05T22:23:38.702Z,20.78
2023-05-05T22:26:12.293Z,20.87
2023-05-05T22:28:43.505Z,20.86
2023-05-05T22:31:14.832Z,20.98
2023-05-05T22:33:46.414Z,21.14
2023-05-05T22:36:17.852Z,21.44
2023-05-05T22:38:49.110Z,21.13
2023-05-05T22:41:20.695Z,21.12
2023-05-05T22:43:51.919Z,21.04
2023-05-05T22:46:22.851Z,21.15
2023-05-05T22:48:54.362Z,21.10
2023-05-05T22:51:25.419Z,21.19
2023-05-05T22:53:57.169Z,21.04
2023-05-05T22:56:28.509Z,21.00
2023-05-05T22:58:59.570Z,20.77
2023-05-05T23:01:33.091Z,20.81
2023-05-05T23:04:05.828Z,20.85
2023-05-05T23:06:37.236Z,21.07
2023-05-05T23:09:09.009Z,20.70
2023-05-05T23:11:39.529Z,20.82
2023-05-05T23:14:10.878Z,20.84
2023-05-05T23:16:41.968Z,20.81
2023-05-05T23:19:13.071Z,20.70
2023-05-05T23:21:52.541Z,20.84
2023-05-05T23:24:24.655Z,20.82
2023-05-05T23:26:56.048Z,20.98
2023-05-05T23:29:27.093Z,20.85
2023-05-05T23:31:58.974Z,21.00
2023-05-05T23:34:29.574Z,20.88
2023-05-05T23:37:01.740Z,21.00
2023-05-05T23:39:36.248Z,21.13
2023-05-05T23:42:07.551Z,21.09
2023-05-05T23:44:38.862Z,21.11
2023-05-05T23:47:10.972Z,20.99
2023-05-05T23:49:42.956Z,21.03
2023-05-05T23:52:14.623Z,21.18
2023-05-05T23:54:47.328Z,21.12
2023-05-05T23:57:18.510Z,21.03
2023-05-05T23:59:50.018Z,21.19
